Aérodrome :
LOGIN :

S'inscrire | Disclaimer

   EN    FR    IT 

 










Légende :    VFR   VFR Marginal   IFR   IFR Intensif   IFR Très Intensif
Visi : 
Plafond : 
>= 8 km
>= 3000ft
5 à 8 km
1000 à 3000 ft
1500m à 5 km
500 à 1000 ft
800 à 1500m
200 à 500 ft
< 800m
< 200 ft
Symboles :   Orages  Brouillard  Fortes neiges  Fortes précipitations  Vent > 20 kt
SIGMETs :   Divers  Orages  Givrage  Turbulence  Onde Orograph.  Cendres Volcan.







- Altitude de l'aérodrome : 22 ft
- Code IATA : LDY
- Voir les cartes d'approche


EGAE - Londonderry Eglington

DERNIER METAR :
  • 221220Z 23022KT 9999 FEW025 SCT031 25/18 Q1011

METARs EXPIRÉS :
  • 221150Z 23022G32KT 9999 BKN031 24/17 Q1010
  • 221120Z 23019KT 9999 BKN028 23/17 Q1011
  • 221050Z 22020KT 9999 FEW017 BKN027 22/17 Q1011
  • 221020Z 22019KT 9999 FEW017 BKN025 23/17 Q1010
  • 220950Z 21020G30KT 9999 FEW015 BKN023 21/17 Q1010

TAF TAF EGAE
Valide du 22 à 12h jusqu'au 22 à 21h UTC


221100Z 2212/2221 22020G32KT 9999 SCT025
BECMG 2216/2220 22015KT
Pas de NOTAMs connus pour ce terrain.
1 SIGMET publié pour la FIR Scottish (EGPX) :
 
Onde orographique forte
EGPX SIGMET 03 VALID 221000/221400 EGRR
EGPX SCOTTISH FIR SEV MTW FCST WI N5500 W00530 - N5355 W00530 - N5425 W00810 - N5520 W00655 - N5525 W00720 - N5520 W00815 - N5630 W00705 - N5717 E00016 - N5500 E00140 - N5500 W00530 FL040/240 STNR WKN=



MET'MAP, la Météo Aéronautique d'un coup d'oeil ! - Copyright ORBIFLY Décembre 2007 - Disclaimer

ORBIFLY MET'MAP TEAM :

Programmation & Développement : Alexandra Zaïnal
Conception & Développement : Baudouin d'Aumeries
Co-Programmation & Développement : Marc-Olivier Méhu
Soutien technique & logistique : Manuel Goepfert

Contact : metmap@orbifly.com




SOURCES & CREDITS :

   NOAA